Time;durP1;ratioP1;P1;durP2;ratioP2;P2;SDS_P1;SDS_P2;PMS_P1;PMS_P2;Temp;Humidity;BMP_temperature;BMP_pressure;BME280_temperature;BME280_humidity;BME280_pressure;Samples;Min_cycle;Max_cycle;Signal;HPM_P1;HPM_P2
2022/05/05 00:01:54;;;;;;;13.02;7.53;;;6.40;31.00;;;;;;5058026;28;20096;-78
2022/05/05 00:04:21;;;;;;;13.18;7.43;;;6.40;29.20;;;;;;5057817;28;20526;-78
2022/05/05 00:06:48;;;;;;;13.60;7.10;;;6.40;52.00;;;;;;5057832;28;20010;-78
2022/05/05 00:09:13;;;;;;;14.48;7.18;;;6.20;40.60;;;;;;5057034;28;20029;-78
2022/05/05 00:14:24;;;;;;;14.43;7.60;;;5.90;6.70;;;;;;5055470;28;20419;-77
2022/05/05 00:16:57;;;;;;;11.00;7.28;;;5.80;8.60;;;;;;5055562;28;20025;-77
2022/05/05 00:19:24;;;;;;;12.82;7.82;;;5.80;58.90;;;;;;5056729;28;20025;-77
2022/05/05 00:21:50;;;;;;;11.68;7.22;;;5.80;23.10;;;;;;5056834;28;20025;-77
2022/05/05 00:24:16;;;;;;;13.77;7.80;;;5.70;9.30;;;;;;5057351;28;20048;-77
2022/05/05 00:26:42;;;;;;;11.88;7.38;;;5.60;8.90;;;;;;5044380;28;20477;-77
2022/05/05 00:29:08;;;;;;;16.63;7.22;;;5.60;7.90;;;;;;5037251;28;20080;-77
2022/05/05 00:31:34;;;;;;;12.65;6.72;;;5.50;1.00;;;;;;5036900;28;20030;-77
2022/05/05 00:33:59;;;;;;;15.32;7.22;;;5.50;7.60;;;;;;5034167;28;20021;-77
2022/05/05 00:36:25;;;;;;;12.40;7.25;;;5.40;22.80;;;;;;5037477;28;20045;-77
2022/05/05 00:38:50;;;;;;;15.13;7.35;;;5.40;29.40;;;;;;5037050;28;20068;-78
2022/05/05 00:41:16;;;;;;;14.80;7.65;;;5.30;15.60;;;;;;5034319;28;20512;-78
2022/05/05 00:43:42;;;;;;;14.05;7.78;;;5.20;1.00;;;;;;5050352;28;20395;-77
2022/05/05 00:46:07;;;;;;;13.20;7.07;;;5.20;15.90;;;;;;5058537;28;20080;-77
2022/05/05 00:48:33;;;;;;;13.38;7.05;;;5.20;20.90;;;;;;5059054;28;20037;-77
2022/05/05 00:50:59;;;;;;;12.82;7.05;;;5.10;1.00;;;;;;5053175;28;20029;-77
2022/05/05 00:53:25;;;;;;;14.20;7.55;;;5.10;1.00;;;;;;5056593;28;20072;-77
2022/05/05 00:56:11;;;;;;;11.65;7.10;;;5.00;25.90;;;;;;5056904;28;20373;-77
2022/05/05 00:58:38;;;;;;;11.32;6.40;;;4.90;1.00;;;;;;5057432;28;20021;-77
2022/05/05 01:01:05;;;;;;;11.85;6.75;;;5.00;70.80;;;;;;5056996;28;20024;-78
2022/05/05 01:03:33;;;;;;;14.88;7.28;;;4.90;21.50;;;;;;5056921;28;20439;-77
2022/05/05 01:05:58;;;;;;;15.52;7.90;;;4.80;1.00;;;;;;5055175;28;20029;-77
2022/05/05 01:08:24;;;;;;;13.48;7.03;;;4.80;31.60;;;;;;5050796;28;20017;-77
2022/05/05 01:10:49;;;;;;;16.42;7.57;;;4.70;1.00;;;;;;5056184;28;20025;-77
2022/05/05 01:13:15;;;;;;;13.73;7.80;;;4.70;7.90;;;;;;5101707;22;20049;-72
2022/05/05 01:15:41;;;;;;;14.45;7.60;;;4.70;15.50;;;;;;5045124;28;20076;-73
2022/05/05 01:18:06;;;;;;;13.93;7.15;;;4.60;30.90;;;;;;5032327;28;20021;-73
2022/05/05 01:20:46;;;;;;;14.30;7.47;;;4.60;50.60;;;;;;5036927;28;20511;-72
2022/05/05 01:23:12;;;;;;;14.73;7.50;;;4.60;72.00;;;;;;5047151;28;20031;-73
2022/05/05 01:28:22;;;;;;;15.75;7.53;;;4.50;91.20;;;;;;5036424;28;20537;-73
2022/05/05 01:30:48;;;;;;;17.83;8.85;;;4.40;86.00;;;;;;5042249;28;20017;-73
2022/05/05 01:33:25;;;;;;;19.63;9.07;;;4.50;99.90;;;;;;5045103;28;20033;-72
2022/05/05 01:35:53;;;;;;;16.42;8.68;;;4.50;99.90;;;;;;5034816;28;20029;-74
2022/05/05 01:38:23;;;;;;;14.80;7.88;;;4.40;99.90;;;;;;5036097;28;20372;-72
2022/05/05 01:40:49;;;;;;;23.45;8.55;;;4.40;99.90;;;;;;5035924;28;20029;-73
2022/05/05 01:43:21;;;;;;;18.58;8.52;;;4.40;99.90;;;;;;5036137;28;20049;-72
2022/05/05 01:45:47;;;;;;;17.30;8.60;;;4.30;99.90;;;;;;5034638;28;20022;-74
2022/05/05 01:48:13;;;;;;;14.27;8.13;;;4.30;99.90;;;;;;5043709;28;20075;-72
2022/05/05 01:50:39;;;;;;;21.95;9.88;;;4.30;99.90;;;;;;5051197;28;20538;-72
2022/05/05 01:53:06;;;;;;;16.17;8.25;;;4.30;99.90;;;;;;5034373;28;20026;-73
2022/05/05 01:55:33;;;;;;;16.90;8.95;;;4.20;99.90;;;;;;5035684;28;20025;-73
2022/05/05 01:58:00;;;;;;;15.05;7.47;;;4.10;99.90;;;;;;5035521;28;20110;-73
2022/05/05 02:00:26;;;;;;;15.50;7.55;;;4.10;99.90;;;;;;5035690;28;20040;-73
2022/05/05 02:02:51;;;;;;;12.38;7.28;;;4.10;99.90;;;;;;5035337;28;20025;-73
2022/05/05 02:05:17;;;;;;;19.10;7.45;;;4.20;99.90;;;;;;5035516;28;20029;-73
2022/05/05 02:07:43;;;;;;;13.20;6.78;;;4.20;99.90;;;;;;5035114;28;20036;-72
2022/05/05 02:10:14;;;;;;;13.23;6.18;;;4.10;99.90;;;;;;5033982;28;20733;-72
2022/05/05 02:12:40;;;;;;;18.05;7.38;;;4.10;99.90;;;;;;5034978;28;20045;-73
2022/05/05 02:15:07;;;;;;;14.70;7.65;;;4.10;99.90;;;;;;5015683;28;20365;-72
2022/05/05 02:17:37;;;;;;;13.48;7.35;;;4.00;99.90;;;;;;5030578;28;20391;-73
2022/05/05 02:20:06;;;;;;;15.57;8.15;;;3.90;99.90;;;;;;5015898;28;20088;-71
2022/05/05 02:22:32;;;;;;;16.42;6.88;;;3.80;99.90;;;;;;5015215;28;20050;-73
2022/05/05 02:24:58;;;;;;;13.48;6.75;;;3.80;99.90;;;;;;5015501;28;20141;-71
2022/05/05 02:27:24;;;;;;;16.27;7.90;;;3.80;99.90;;;;;;5030948;28;20061;-72
2022/05/05 02:29:51;;;;;;;13.52;8.45;;;3.80;99.90;;;;;;5014663;28;20026;-72
2022/05/05 02:32:17;;;;;;;13.90;7.88;;;4.20;99.90;;;;;;5014591;28;20045;-72
2022/05/05 02:34:47;;;;;;;18.95;8.68;;;4.10;99.90;;;;;;5015384;28;20061;-73
2022/05/05 02:39:58;;;;;;;17.20;9.13;;;3.80;99.90;;;;;;5015477;28;20029;-71
2022/05/05 02:42:24;;;;;;;17.25;8.63;;;3.70;99.90;;;;;;5015780;28;20044;-73
2022/05/05 02:44:49;;;;;;;19.67;9.43;;;3.90;99.90;;;;;;5015137;28;20018;-72
2022/05/05 02:47:15;;;;;;;16.20;9.35;;;4.00;99.90;;;;;;5015536;28;20092;-72
2022/05/05 02:49:41;;;;;;;20.27;9.57;;;3.80;99.90;;;;;;5015547;28;20037;-72
2022/05/05 02:52:08;;;;;;;18.08;9.00;;;4.00;99.90;;;;;;5015299;28;20092;-73
2022/05/05 02:54:52;;;;;;;20.02;9.35;;;4.00;99.90;;;;;;5015172;28;20030;-72
2022/05/05 02:57:20;;;;;;;20.35;9.68;;;3.90;99.90;;;;;;5015692;28;20022;-72
2022/05/05 02:59:45;;;;;;;20.25;10.40;;;4.00;99.90;;;;;;5015102;28;20025;-72
2022/05/05 03:02:11;;;;;;;18.27;8.95;;;4.00;99.90;;;;;;5030273;28;20030;-72
2022/05/05 03:04:37;;;;;;;20.38;9.55;;;3.80;99.90;;;;;;5013827;28;20018;-73
2022/05/05 03:07:02;;;;;;;22.27;9.40;;;3.70;99.90;;;;;;5015532;28;20540;-72
2022/05/05 03:09:28;;;;;;;20.48;9.52;;;3.90;99.90;;;;;;5015196;28;20392;-71
2022/05/05 03:11:53;;;;;;;18.25;9.20;;;3.80;99.90;;;;;;5015683;28;20057;-72
2022/05/05 03:14:19;;;;;;;23.80;9.55;;;3.90;99.90;;;;;;5015376;28;20054;-72
2022/05/05 03:16:45;;;;;;;19.42;8.52;;;3.70;99.90;;;;;;5015681;28;20068;-72
2022/05/05 03:19:10;;;;;;;17.50;9.65;;;3.70;99.90;;;;;;5015835;28;20022;-72
2022/05/05 03:21:36;;;;;;;21.63;10.05;;;3.70;99.90;;;;;;5015781;28;20113;-73
2022/05/05 03:24:03;;;;;;;16.65;9.10;;;4.00;99.90;;;;;;5015631;28;20026;-72
2022/05/05 03:26:29;;;;;;;20.40;9.50;;;4.00;99.90;;;;;;5034827;28;20017;-73
2022/05/05 03:28:55;;;;;;;18.98;9.68;;;4.20;99.90;;;;;;5036070;28;20108;-73
2022/05/05 03:31:20;;;;;;;26.00;10.68;;;4.40;99.90;;;;;;5035701;28;20032;-71
2022/05/05 03:33:46;;;;;;;26.10;10.43;;;4.50;99.90;;;;;;5019527;28;20026;-71
2022/05/05 03:36:11;;;;;;;18.35;9.23;;;4.50;99.90;;;;;;5015770;28;20102;-71
2022/05/05 03:38:37;;;;;;;22.52;9.73;;;4.40;99.90;;;;;;5016590;28;20072;-72
2022/05/05 03:41:02;;;;;;;22.15;9.20;;;4.50;99.90;;;;;;5015598;28;20038;-71
2022/05/05 03:43:28;;;;;;;20.45;9.98;;;4.60;99.90;;;;;;5031110;28;20026;-73
2022/05/05 03:45:54;;;;;;;22.70;10.05;;;4.70;99.90;;;;;;5015664;28;20534;-72
2022/05/05 03:48:20;;;;;;;20.23;9.60;;;4.60;99.90;;;;;;5014359;28;20033;-71
2022/05/05 03:50:45;;;;;;;21.92;9.50;;;4.50;99.90;;;;;;5014560;28;20380;-73
2022/05/05 03:53:11;;;;;;;18.52;9.30;;;4.50;99.90;;;;;;5015641;28;20281;-73
2022/05/05 03:55:36;;;;;;;21.02;9.23;;;4.70;99.90;;;;;;5015359;28;20102;-71
2022/05/05 03:58:02;;;;;;;19.65;9.75;;;4.80;99.90;;;;;;5031097;28;20026;-72
2022/05/05 04:00:28;;;;;;;19.02;8.82;;;4.90;99.90;;;;;;5015514;28;20396;-72
2022/05/05 04:05:38;;;;;;;21.23;11.20;;;5.10;99.90;;;;;;5015190;28;20128;-72
2022/05/05 04:08:05;;;;;;;23.58;9.73;;;5.20;99.90;;;;;;5016020;28;20026;-71
2022/05/05 04:10:31;;;;;;;19.88;9.07;;;5.30;99.90;;;;;;5015816;28;20032;-72
2022/05/05 04:12:57;;;;;;;21.38;10.30;;;5.30;99.90;;;;;;5016018;28;20036;-71
2022/05/05 04:15:23;;;;;;;21.65;9.98;;;5.30;99.90;;;;;;5017003;28;20034;-71
2022/05/05 04:17:50;;;;;;;17.83;9.13;;;5.40;99.90;;;;;;5016573;28;20089;-72
2022/05/05 04:20:16;;;;;;;19.02;9.70;;;5.40;99.90;;;;;;5015083;28;20261;-71
2022/05/05 04:22:41;;;;;;;25.35;9.60;;;5.40;99.90;;;;;;5031235;28;20083;-72
2022/05/05 04:25:08;;;;;;;17.45;8.38;;;5.50;99.90;;;;;;5022269;28;20394;-71
2022/05/05 04:27:34;;;;;;;21.02;9.98;;;5.50;99.90;;;;;;5036377;28;20045;-73
2022/05/05 04:30:01;;;;;;;18.52;9.43;;;5.50;99.90;;;;;;5036076;28;20029;-72
2022/05/05 04:32:27;;;;;;;19.00;9.80;;;5.50;99.90;;;;;;5030721;28;20028;-72
2022/05/05 04:34:54;;;;;;;19.67;10.05;;;5.50;99.90;;;;;;5015783;28;20030;-72
2022/05/05 04:37:20;;;;;;;20.40;8.52;;;5.60;99.90;;;;;;5031394;28;20026;-71
2022/05/05 04:39:45;;;;;;;18.08;9.30;;;5.60;70.50;;;;;;5014832;28;20088;-73
2022/05/05 04:42:11;;;;;;;19.88;8.70;;;5.60;51.10;;;;;;5015787;28;20037;-72
2022/05/05 04:44:37;;;;;;;16.42;8.85;;;5.70;83.50;;;;;;5015705;28;20037;-72
2022/05/05 04:47:02;;;;;;;17.35;9.18;;;5.80;94.20;;;;;;5015763;28;20082;-72
2022/05/05 04:49:29;;;;;;;16.52;8.48;;;6.00;99.90;;;;;;5015558;28;20058;-72
2022/05/05 04:51:54;;;;;;;16.27;9.38;;;6.10;98.40;;;;;;5030497;28;20030;-71
2022/05/05 04:54:20;;;;;;;16.83;8.85;;;6.30;99.90;;;;;;5018019;28;20026;-72
2022/05/05 04:56:45;;;;;;;18.10;9.23;;;6.50;99.90;;;;;;5020110;28;20053;-72
2022/05/05 04:59:12;;;;;;;19.27;9.02;;;6.60;75.70;;;;;;5021401;28;20050;-71
2022/05/05 05:01:37;;;;;;;17.38;8.48;;;6.80;92.90;;;;;;5020582;28;20049;-72
2022/05/05 05:04:03;;;;;;;14.90;7.70;;;6.90;91.60;;;;;;5020546;28;20388;-71
2022/05/05 05:06:29;;;;;;;14.63;8.27;;;7.00;77.00;;;;;;5020873;28;20474;-72
2022/05/05 05:08:57;;;;;;;17.05;9.20;;;7.10;28.80;;;;;;5020943;28;20022;-71
2022/05/05 05:11:23;;;;;;;17.73;8.32;;;7.30;1.00;;;;;;5021262;28;20497;-72
2022/05/05 05:13:49;;;;;;;15.32;7.82;;;7.40;20.20;;;;;;5019762;28;20137;-73
2022/05/05 05:16:15;;;;;;;18.35;8.93;;;7.40;10.10;;;;;;5019807;28;20034;-72
2022/05/05 05:18:40;;;;;;;13.75;8.10;;;7.50;7.00;;;;;;5020014;28;20025;-73
2022/05/05 05:21:07;;;;;;;17.30;8.43;;;7.70;1.00;;;;;;5021999;28;20137;-73
2022/05/05 05:23:33;;;;;;;16.63;7.50;;;7.70;1.00;;;;;;5030803;28;20065;-72
2022/05/05 05:25:58;;;;;;;13.77;7.53;;;7.90;1.00;;;;;;5026650;28;20033;-72
2022/05/05 05:28:24;;;;;;;15.23;7.63;;;8.00;1.00;;;;;;5021105;28;20045;-72
2022/05/05 05:30:50;;;;;;;17.77;8.40;;;8.20;1.00;;;;;;5035515;28;20033;-72
2022/05/05 05:33:16;;;;;;;13.65;8.02;;;8.30;1.00;;;;;;5020606;28;20057;-74
2022/05/05 05:35:41;;;;;;;14.40;7.40;;;8.20;1.00;;;;;;5021222;28;20010;-72
2022/05/05 05:38:07;;;;;;;14.23;7.35;;;8.40;1.00;;;;;;5021202;28;20149;-72
2022/05/05 05:40:33;;;;;;;20.15;8.80;;;8.60;1.00;;;;;;5035801;28;20123;-73
2022/05/05 05:42:59;;;;;;;25.80;9.38;;;8.70;1.00;;;;;;5036189;28;20281;-73
2022/05/05 05:45:24;;;;;;;14.65;7.90;;;8.90;1.00;;;;;;5021049;28;20076;-72
2022/05/05 05:47:50;;;;;;;13.80;8.35;;;9.20;1.00;;;;;;5020334;28;20026;-73
2022/05/05 05:50:16;;;;;;;13.20;7.93;;;9.30;1.00;;;;;;5020258;28;20392;-72
2022/05/05 05:52:42;;;;;;;14.90;8.23;;;9.40;1.00;;;;;;5020564;28;20030;-72
2022/05/05 05:55:08;;;;;;;16.50;8.80;;;9.30;1.00;;;;;;5036198;28;20033;-72
2022/05/05 05:57:33;;;;;;;17.63;8.02;;;9.40;1.00;;;;;;5037034;28;20038;-73
2022/05/05 05:59:59;;;;;;;16.75;9.05;;;9.50;1.00;;;;;;5023141;28;20455;-72
2022/05/05 06:05:08;;;;;;;14.32;8.23;;;9.80;1.00;;;;;;5022923;28;20033;-73
2022/05/05 06:07:34;;;;;;;18.48;8.35;;;10.00;1.00;;;;;;5021681;28;20018;-73
2022/05/05 06:09:59;;;;;;;17.10;8.95;;;10.20;1.00;;;;;;5021902;28;20080;-72
2022/05/05 06:12:25;;;;;;;16.15;9.55;;;10.30;1.00;;;;;;5021775;28;20061;-73
2022/05/05 06:14:51;;;;;;;13.23;8.10;;;10.60;1.00;;;;;;5021462;28;20054;-72
2022/05/05 06:17:16;;;;;;;19.60;8.77;;;10.50;1.00;;;;;;5020624;28;20014;-73
2022/05/05 06:19:43;;;;;;;13.98;8.50;;;10.70;1.00;;;;;;5022231;28;20037;-73
2022/05/05 06:22:09;;;;;;;14.15;8.27;;;11.00;1.00;;;;;;5022637;28;20511;-72
2022/05/05 06:24:34;;;;;;;16.27;8.02;;;11.20;1.00;;;;;;5021340;28;20034;-73
2022/05/05 06:27:00;;;;;;;12.68;8.20;;;11.30;1.00;;;;;;5023168;28;20377;-73
2022/05/05 06:29:25;;;;;;;13.77;7.90;;;11.30;1.00;;;;;;5023552;28;20415;-72
2022/05/05 06:31:51;;;;;;;15.63;8.38;;;11.50;1.00;;;;;;5022369;28;20510;-74
2022/05/05 06:34:16;;;;;;;19.05;7.63;;;11.80;1.00;;;;;;5023240;28;20049;-73
2022/05/05 06:36:42;;;;;;;11.30;8.02;;;11.80;1.00;;;;;;5022547;28;20022;-71
2022/05/05 06:39:08;;;;;;;15.40;7.55;;;12.00;1.00;;;;;;5020895;28;20034;-72
2022/05/05 06:41:34;;;;;;;13.90;8.30;;;12.20;99.90;;;;;;5021982;28;20125;-72
2022/05/05 06:43:59;;;;;;;17.50;7.63;;;12.10;99.90;;;;;;5022291;28;20041;-73
2022/05/05 06:46:26;;;;;;;12.05;7.53;;;11.80;1.00;;;;;;5023047;28;20029;-73
2022/05/05 06:48:51;;;;;;;11.68;8.13;;;11.90;1.00;;;;;;5022616;28;20022;-73
2022/05/05 06:51:17;;;;;;;15.38;7.93;;;12.10;1.00;;;;;;5022877;28;20111;-72
2022/05/05 06:53:43;;;;;;;15.65;8.85;;;12.20;99.90;;;;;;5023128;28;20137;-72
2022/05/05 06:56:08;;;;;;;15.88;7.60;;;12.40;99.90;;;;;;5023416;28;20113;-72
2022/05/05 06:58:34;;;;;;;12.98;7.85;;;12.40;99.90;;;;;;5022656;28;20092;-73
2022/05/05 07:03:43;;;;;;;12.55;8.40;;;12.40;99.90;;;;;;5022005;28;20121;-73
2022/05/05 07:06:10;;;;;;;11.60;7.03;;;12.80;99.90;;;;;;5022645;28;20037;-72
2022/05/05 07:11:21;;;;;;;15.75;7.88;;;13.40;99.90;;;;;;5022902;28;20036;-73
2022/05/05 07:13:47;;;;;;;14.60;7.90;;;13.50;99.90;;;;;;5022327;28;20056;-72
2022/05/05 07:16:13;;;;;;;11.52;7.95;;;13.70;99.90;;;;;;5021607;28;20054;-72
2022/05/05 07:18:38;;;;;;;13.55;7.47;;;13.90;99.90;;;;;;5023004;28;20030;-73
2022/05/05 07:21:04;;;;;;;15.55;7.75;;;14.20;99.90;;;;;;5022913;28;20037;-73
2022/05/05 07:23:29;;;;;;;14.80;7.13;;;14.10;99.90;;;;;;5022973;28;20030;-73
2022/05/05 07:25:55;;;;;;;13.10;7.57;;;14.50;99.90;;;;;;5022683;28;20141;-73
2022/05/05 07:28:21;;;;;;;11.90;7.82;;;14.90;99.90;;;;;;5022607;28;20026;-73
2022/05/05 07:30:47;;;;;;;13.18;7.57;;;15.30;99.90;;;;;;5021809;28;20025;-74
2022/05/05 07:33:12;;;;;;;11.05;7.13;;;15.30;99.90;;;;;;5021259;28;20075;-71
2022/05/05 07:35:38;;;;;;;13.40;8.13;;;15.50;99.90;;;;;;5020903;28;20026;-74
2022/05/05 07:38:07;;;;;;;15.43;8.27;;;15.10;99.90;;;;;;5022150;28;20026;-73
2022/05/05 07:40:33;;;;;;;13.48;8.00;;;15.30;99.90;;;;;;5022624;28;20034;-73
2022/05/05 07:42:58;;;;;;;11.23;7.28;;;15.50;99.90;;;;;;5021972;28;20030;-73
2022/05/05 07:45:24;;;;;;;17.08;7.75;;;16.00;99.90;;;;;;5021799;28;20036;-73
2022/05/05 07:47:49;;;;;;;12.32;7.43;;;16.20;99.90;;;;;;5021547;28;20057;-73
2022/05/05 07:50:15;;;;;;;10.93;7.05;;;16.50;99.90;;;;;;5021152;28;20018;-73
2022/05/05 07:52:41;;;;;;;11.65;6.90;;;16.10;99.90;;;;;;5036799;28;20195;-72
2022/05/05 07:55:08;;;;;;;11.70;7.30;;;16.00;99.90;;;;;;5022010;28;20018;-72
2022/05/05 07:57:42;;;;;;;11.68;6.82;;;16.50;99.90;;;;;;5021736;28;20111;-74
2022/05/05 08:00:10;;;;;;;9.90;6.80;;;16.20;99.90;;;;;;5022616;28;20068;-73
2022/05/05 08:02:35;;;;;;;11.82;7.38;;;16.70;99.90;;;;;;5021526;28;20037;-75
2022/05/05 08:05:01;;;;;;;9.13;6.38;;;17.20;99.90;;;;;;5021955;28;20033;-73
2022/05/05 08:07:28;;;;;;;14.23;7.22;;;17.20;99.90;;;;;;5021758;28;20030;-72
2022/05/05 08:09:55;;;;;;;10.07;6.47;;;17.20;99.90;;;;;;5036127;28;20072;-73
2022/05/05 08:12:20;;;;;;;12.38;7.03;;;17.30;99.90;;;;;;5020438;28;20076;-74
2022/05/05 08:14:46;;;;;;;13.05;6.90;;;17.20;99.90;;;;;;5020364;28;20121;-73
2022/05/05 08:17:11;;;;;;;13.55;7.63;;;17.30;99.90;;;;;;5019687;28;20032;-72
2022/05/05 08:19:37;;;;;;;11.48;6.68;;;17.70;99.90;;;;;;5019057;28;20063;-72
2022/05/05 08:22:03;;;;;;;12.77;7.50;;;17.80;99.90;;;;;;5020037;28;20026;-73
2022/05/05 08:30:02;;;;;;;15.07;7.93;;;17.00;99.90;;;;;;5018345;28;20039;-73
2022/05/05 08:32:28;;;;;;;13.45;7.60;;;17.70;99.90;;;;;;5018573;28;20022;-72
2022/05/05 08:34:54;;;;;;;11.00;6.88;;;18.60;99.90;;;;;;5018524;28;20025;-73
2022/05/05 08:37:19;;;;;;;11.02;6.28;;;19.20;99.90;;;;;;5019327;28;20134;-74
2022/05/05 08:39:45;;;;;;;13.25;7.65;;;19.80;99.90;;;;;;5034279;28;20033;-73
2022/05/05 08:42:11;;;;;;;12.52;6.97;;;21.30;99.90;;;;;;5018863;28;20034;-72
2022/05/05 08:44:37;;;;;;;13.90;8.00;;;23.20;99.90;;;;;;5019754;28;20026;-73
2022/05/05 08:47:04;;;;;;;12.48;6.50;;;24.40;99.90;;;;;;5019578;28;20022;-73
2022/05/05 08:49:31;;;;;;;12.02;5.95;;;24.10;99.90;;;;;;5018844;28;20026;-74
2022/05/05 08:52:02;;;;;;;11.20;6.00;;;23.80;99.90;;;;;;5019987;28;20084;-74
2022/05/05 08:54:31;;;;;;;9.25;6.03;;;24.60;99.90;;;;;;5020178;28;20033;-73
2022/05/05 08:56:56;;;;;;;12.27;6.05;;;25.60;99.90;;;;;;5019717;28;20033;-74
2022/05/05 08:59:22;;;;;;;9.90;6.70;;;26.40;99.90;;;;;;5020561;28;20014;-74
2022/05/05 09:01:48;;;;;;;9.63;6.15;;;27.30;99.90;;;;;;5043255;28;20049;-74
2022/05/05 09:04:14;;;;;;;12.15;7.47;;;28.90;99.90;;;;;;5030286;28;20022;-73
2022/05/05 09:06:46;;;;;;;12.10;7.15;;;27.30;99.90;;;;;;5020118;28;20510;-74
2022/05/05 09:09:33;;;;;;;13.00;8.00;;;27.60;99.90;;;;;;5019398;28;20106;-74
2022/05/05 09:12:16;;;;;;;15.45;8.50;;;29.50;99.90;;;;;;5019311;28;20034;-74
2022/05/05 09:14:47;;;;;;;17.50;10.27;;;31.60;99.90;;;;;;5019111;28;20046;-73
2022/05/05 09:17:14;;;;;;;21.02;13.68;;;32.20;99.90;;;;;;5031637;28;20101;-73
2022/05/05 09:19:42;;;;;;;20.77;13.30;;;32.00;99.90;;;;;;5036934;28;20029;-74
2022/05/05 09:22:09;;;;;;;20.10;11.90;;;35.10;99.90;;;;;;5037522;28;20111;-73
2022/05/05 09:24:36;;;;;;;21.80;13.43;;;35.70;99.90;;;;;;5034891;28;20084;-74
2022/05/05 09:27:34;;;;;;;22.83;14.70;;;34.20;99.90;;;;;;5018477;28;20018;-74
2022/05/05 09:30:14;;;;;;;26.45;16.05;;;33.50;99.90;;;;;;5005977;28;20105;-73
2022/05/05 09:32:40;;;;;;;22.13;13.52;;;34.30;99.90;;;;;;5017944;28;20033;-73
2022/05/05 09:35:16;;;;;;;21.90;16.00;;;36.10;99.90;;;;;;5035636;28;20028;-73
2022/05/05 09:37:49;;;;;;;26.90;17.80;;;37.70;99.90;;;;;;5035280;28;20553;-74
2022/05/05 09:40:20;;;;;;;25.15;16.55;;;34.20;99.90;;;;;;5038391;28;20116;-74
2022/05/05 09:42:47;;;;;;;24.35;15.75;;;33.60;99.90;;;;;;5040522;28;20041;-75
2022/05/05 09:45:21;;;;;;;25.70;15.77;;;34.00;99.90;;;;;;5040517;28;20033;-74
2022/05/05 09:48:04;;;;;;;20.30;14.73;;;32.80;99.90;;;;;;5039320;28;20033;-74
2022/05/05 09:50:32;;;;;;;20.60;15.18;;;31.80;99.90;;;;;;5037778;28;20035;-74
2022/05/05 09:58:40;;;;;;;25.40;17.85;;;31.70;99.90;;;;;;5037997;28;20067;-73
2022/05/05 10:01:09;;;;;;;26.17;17.98;;;32.90;99.90;;;;;;5037857;28;20485;-74
2022/05/05 10:06:28;;;;;;;23.77;15.43;;;35.10;99.90;;;;;;5037859;28;20119;-73
2022/05/05 10:08:57;;;;;;;22.20;15.57;;;33.60;99.90;;;;;;5021481;28;20101;-74
2022/05/05 10:11:23;;;;;;;21.83;13.73;;;35.60;99.90;;;;;;5017838;28;20094;-73
2022/05/05 10:13:50;;;;;;;17.10;13.00;;;35.00;99.90;;;;;;5018265;28;20077;-74
2022/05/05 10:16:18;;;;;;;16.52;12.65;;;35.10;99.90;;;;;;5017920;28;20025;-73
2022/05/05 10:18:44;;;;;;;17.73;12.30;;;33.90;99.90;;;;;;5032640;28;20026;-74
2022/05/05 10:21:39;;;;;;;18.02;12.00;;;34.10;99.90;;;;;;5017196;28;20503;-74
2022/05/05 10:24:12;;;;;;;17.60;12.45;;;34.20;99.90;;;;;;5016969;28;20029;-73
2022/05/05 10:26:38;;;;;;;17.10;12.20;;;33.30;99.90;;;;;;5016966;28;20091;-74
2022/05/05 10:29:25;;;;;;;16.13;12.07;;;30.70;99.90;;;;;;5015475;28;20041;-74
2022/05/05 10:31:50;;;;;;;14.50;11.30;;;31.30;99.90;;;;;;5015679;28;20030;-75
2022/05/05 10:34:18;;;;;;;17.27;11.77;;;30.80;99.90;;;;;;5016681;28;20030;-74
2022/05/05 10:36:58;;;;;;;16.05;11.40;;;30.10;99.90;;;;;;5016032;28;20097;-74
2022/05/05 10:39:26;;;;;;;15.60;11.65;;;30.90;99.90;;;;;;5016062;28;20477;-74
2022/05/05 10:42:12;;;;;;;14.52;11.23;;;31.50;99.90;;;;;;5016185;28;20282;-74
2022/05/05 10:45:05;;;;;;;18.67;12.07;;;31.10;99.90;;;;;;5014788;28;20026;-75
2022/05/05 10:48:12;;;;;;;18.83;13.48;;;29.60;99.90;;;;;;5015902;28;20432;-74
2022/05/05 10:50:56;;;;;;;18.40;13.98;;;30.00;99.90;;;;;;5014979;28;20058;-74
2022/05/05 10:53:30;;;;;;;19.17;13.48;;;29.10;99.90;;;;;;5015029;28;20105;-74
2022/05/05 10:55:57;;;;;;;17.10;13.25;;;29.90;99.90;;;;;;5015455;28;20017;-75
2022/05/05 10:59:01;;;;;;;16.95;13.25;;;29.50;99.90;;;;;;5015053;28;20469;-74
2022/05/05 11:01:29;;;;;;;21.70;14.88;;;30.50;99.90;;;;;;5015646;28;20026;-75
2022/05/05 11:04:15;;;;;;;20.00;14.25;;;29.60;99.90;;;;;;5015437;28;20056;-74
2022/05/05 11:06:42;;;;;;;17.10;13.15;;;29.80;99.90;;;;;;5015049;28;20072;-74
2022/05/05 11:09:08;;;;;;;20.40;14.35;;;29.90;99.90;;;;;;5015117;28;20022;-75
2022/05/05 11:11:43;;;;;;;19.70;14.27;;;30.40;99.90;;;;;;5031233;28;20029;-74
2022/05/05 11:23:00;;;;;;;19.55;14.30;;;29.60;99.90;;;;;;5014539;28;20564;-74
2022/05/05 11:25:27;;;;;;;19.65;13.57;;;29.70;99.90;;;;;;5014775;28;20046;-75
2022/05/05 11:27:56;;;;;;;19.90;14.48;;;29.50;99.90;;;;;;5014195;28;20022;-75
2022/05/05 11:30:22;;;;;;;;;;;29.10;99.90;;;;;;5015252;28;20018;-75
2022/05/05 11:32:48;;;;;;;21.05;13.38;;;28.80;99.90;;;;;;5014167;28;20236;-73
2022/05/05 11:35:20;;;;;;;23.40;14.77;;;28.90;99.90;;;;;;5014697;28;20029;-74
2022/05/05 11:37:45;;;;;;;20.63;13.65;;;28.80;99.90;;;;;;5014772;28;20064;-75
2022/05/05 11:40:12;;;;;;;21.23;14.43;;;29.00;99.90;;;;;;5014725;28;20025;-74
2022/05/05 11:45:34;;;;;;;20.88;14.77;;;28.30;99.90;;;;;;5015062;28;20084;-75
2022/05/05 11:48:14;;;;;;;26.52;17.20;;;27.90;99.90;;;;;;5014794;28;20026;-74
2022/05/05 11:50:44;;;;;;;28.00;17.00;;;27.60;99.90;;;;;;5014379;28;20034;-75
2022/05/05 11:53:17;;;;;;;24.98;16.45;;;27.70;99.90;;;;;;5014463;28;20029;-73
2022/05/05 11:55:48;;;;;;;24.65;15.82;;;26.90;99.90;;;;;;5014778;28;20376;-75
2022/05/05 11:58:16;;;;;;;19.95;13.82;;;26.80;99.90;;;;;;5014321;28;20520;-73
2022/05/05 12:03:25;;;;;;;23.02;16.30;;;28.00;99.90;;;;;;5013618;28;20041;-74
2022/05/05 12:05:53;;;;;;;26.27;16.60;;;27.40;99.90;;;;;;5013730;28;20468;-75
2022/05/05 12:08:19;;;;;;;24.27;16.40;;;27.30;99.90;;;;;;5025429;28;20103;-74
2022/05/05 12:10:45;;;;;;;21.67;14.95;;;27.80;99.90;;;;;;5034566;28;20045;-74
2022/05/05 12:13:10;;;;;;;22.27;14.60;;;27.90;99.90;;;;;;5032277;28;20408;-73
2022/05/05 12:15:38;;;;;;;23.50;14.95;;;27.80;99.90;;;;;;5034020;28;20025;-74
2022/05/05 12:18:13;;;;;;;22.50;15.60;;;27.80;99.90;;;;;;5033884;28;20036;-73
2022/05/05 12:20:39;;;;;;;22.45;15.73;;;27.50;99.90;;;;;;5033141;28;20116;-74
2022/05/05 12:23:05;;;;;;;25.13;15.10;;;27.00;99.90;;;;;;5032648;28;20125;-74
2022/05/05 12:25:30;;;;;;;24.73;15.98;;;26.40;99.90;;;;;;5021718;28;20117;-73
2022/05/05 12:27:57;;;;;;;21.98;14.60;;;26.40;99.90;;;;;;5013414;28;20097;-74
2022/05/05 12:30:34;;;;;;;22.20;14.55;;;25.60;99.90;;;;;;5013396;28;20021;-74
2022/05/05 12:33:01;;;;;;;21.63;14.38;;;26.30;99.90;;;;;;5013237;28;20088;-75
2022/05/05 12:35:35;;;;;;;25.00;14.70;;;26.00;99.90;;;;;;5013409;28;20109;-74
2022/05/05 12:38:03;;;;;;;24.20;14.18;;;25.80;99.90;;;;;;5014148;28;20026;-74
2022/05/05 12:40:29;;;;;;;17.95;12.35;;;25.90;99.90;;;;;;5013366;28;20022;-75
2022/05/05 12:43:02;;;;;;;25.33;15.02;;;26.60;99.90;;;;;;5013596;28;20084;-75
2022/05/05 12:45:31;;;;;;;23.15;14.75;;;26.10;99.90;;;;;;5013575;28;20014;-74
2022/05/05 12:48:01;;;;;;;23.15;15.27;;;25.60;99.90;;;;;;5013221;28;20114;-74
2022/05/05 12:50:38;;;;;;;21.58;14.55;;;25.60;99.90;;;;;;5013030;28;20042;-74
2022/05/05 13:01:37;;;;;;;21.70;14.60;;;25.30;99.90;;;;;;5012572;28;20056;-75
2022/05/05 13:04:06;;;;;;;23.17;15.13;;;25.40;99.90;;;;;;5013090;28;20108;-74
2022/05/05 13:06:33;;;;;;;20.88;13.50;;;25.50;99.90;;;;;;5011891;28;20021;-74
2022/05/05 13:08:59;;;;;;;21.10;13.55;;;25.40;99.90;;;;;;5028391;28;20025;-74
2022/05/05 13:11:25;;;;;;;21.42;14.65;;;25.60;99.90;;;;;;5032347;28;20044;-74
2022/05/05 13:13:51;;;;;;;23.35;15.57;;;24.70;99.90;;;;;;5031069;28;20049;-74
2022/05/05 13:16:18;;;;;;;22.05;13.63;;;25.00;99.90;;;;;;5035293;28;20034;-74
2022/05/05 13:18:44;;;;;;;20.83;13.68;;;25.30;99.90;;;;;;5035689;28;20025;-73
2022/05/05 13:21:10;;;;;;;18.92;12.30;;;25.00;99.90;;;;;;5034186;28;20392;-74
2022/05/05 13:23:36;;;;;;;19.92;12.80;;;25.30;99.90;;;;;;5034097;28;20025;-73
2022/05/05 13:26:03;;;;;;;19.98;13.23;;;25.40;99.90;;;;;;5020387;28;20064;-75
2022/05/05 13:28:31;;;;;;;16.13;11.60;;;25.60;99.90;;;;;;5030852;28;20468;-75
2022/05/05 13:30:56;;;;;;;21.30;11.40;;;25.80;99.90;;;;;;5014153;28;20476;-74
2022/05/05 13:33:22;;;;;;;20.27;13.32;;;26.10;99.90;;;;;;5016122;28;20036;-74
2022/05/05 13:35:47;;;;;;;22.67;14.55;;;25.70;99.90;;;;;;5015572;28;20032;-74
2022/05/05 13:38:13;;;;;;;19.88;13.52;;;26.10;99.90;;;;;;5014607;28;20026;-74
2022/05/05 13:40:38;;;;;;;22.15;14.48;;;25.90;99.90;;;;;;5015416;28;20030;-75